sensor_id;sensor_type;location;lat;lon;timestamp;pressure;altitude;pressure_sealevel;temperature;humidity
12594;BME280;6362;50.208;9.182;2023-01-26T00:00:50;100575.84;;;-0.98;84.75
12594;BME280;6362;50.208;9.182;2023-01-26T00:03:16;100566.50;;;-0.98;84.77
12594;BME280;6362;50.208;9.182;2023-01-26T00:05:42;100572.25;;;-1.02;85.22
12594;BME280;6362;50.208;9.182;2023-01-26T00:08:08;100571.47;;;-1.01;84.74
12594;BME280;6362;50.208;9.182;2023-01-26T00:10:35;100568.13;;;-1.00;85.08
12594;BME280;6362;50.208;9.182;2023-01-26T00:13:02;100564.66;;;-1.00;85.07
12594;BME280;6362;50.208;9.182;2023-01-26T00:15:28;100546.03;;;-0.99;85.08
12594;BME280;6362;50.208;9.182;2023-01-26T00:17:53;100542.50;;;-1.01;85.09
12594;BME280;6362;50.208;9.182;2023-01-26T00:20:19;100540.19;;;-0.97;84.98
12594;BME280;6362;50.208;9.182;2023-01-26T00:22:44;100541.94;;;-0.96;85.08
12594;BME280;6362;50.208;9.182;2023-01-26T00:25:10;100542.97;;;-0.92;85.66
12594;BME280;6362;50.208;9.182;2023-01-26T00:27:35;100542.78;;;-0.95;84.88
12594;BME280;6362;50.208;9.182;2023-01-26T00:30:01;100543.03;;;-0.91;85.32
12594;BME280;6362;50.208;9.182;2023-01-26T00:32:26;100535.38;;;-0.91;85.65
12594;BME280;6362;50.208;9.182;2023-01-26T00:34:52;100527.00;;;-0.88;85.54
12594;BME280;6362;50.208;9.182;2023-01-26T00:37:17;100528.88;;;-0.84;85.61
12594;BME280;6362;50.208;9.182;2023-01-26T00:39:43;100528.69;;;-0.89;84.97
12594;BME280;6362;50.208;9.182;2023-01-26T00:42:10;100526.84;;;-0.91;85.35
12594;BME280;6362;50.208;9.182;2023-01-26T00:44:36;100527.28;;;-1.00;84.96
12594;BME280;6362;50.208;9.182;2023-01-26T00:47:03;100529.16;;;-0.96;84.97
12594;BME280;6362;50.208;9.182;2023-01-26T00:49:29;100537.50;;;-1.00;84.81
12594;BME280;6362;50.208;9.182;2023-01-26T00:51:54;100531.50;;;-1.00;85.26
12594;BME280;6362;50.208;9.182;2023-01-26T00:54:20;100532.59;;;-0.95;85.20
12594;BME280;6362;50.208;9.182;2023-01-26T00:56:45;100531.81;;;-0.94;85.19
12594;BME280;6362;50.208;9.182;2023-01-26T00:59:11;100525.75;;;-0.96;85.30
12594;BME280;6362;50.208;9.182;2023-01-26T01:01:36;100528.16;;;-0.99;85.55
12594;BME280;6362;50.208;9.182;2023-01-26T01:04:01;100523.19;;;-0.96;84.92
12594;BME280;6362;50.208;9.182;2023-01-26T01:06:27;100517.22;;;-0.97;85.25
12594;BME280;6362;50.208;9.182;2023-01-26T01:08:52;100524.06;;;-0.96;85.17
12594;BME280;6362;50.208;9.182;2023-01-26T01:11:18;100524.22;;;-0.93;84.94
12594;BME280;6362;50.208;9.182;2023-01-26T01:13:43;100519.13;;;-0.93;85.52
12594;BME280;6362;50.208;9.182;2023-01-26T01:16:11;100517.06;;;-1.00;85.80
12594;BME280;6362;50.208;9.182;2023-01-26T01:18:37;100526.53;;;-0.97;85.39
12594;BME280;6362;50.208;9.182;2023-01-26T01:21:07;100523.69;;;-1.03;85.12
12594;BME280;6362;50.208;9.182;2023-01-26T01:23:33;100527.84;;;-1.06;84.88
12594;BME280;6362;50.208;9.182;2023-01-26T01:26:00;100526.91;;;-1.08;85.68
12594;BME280;6362;50.208;9.182;2023-01-26T01:28:26;100539.59;;;-1.09;85.57
12594;BME280;6362;50.208;9.182;2023-01-26T01:30:52;100525.00;;;-1.12;85.63
12594;BME280;6362;50.208;9.182;2023-01-26T01:33:17;100527.63;;;-1.10;85.62
12594;BME280;6362;50.208;9.182;2023-01-26T01:35:43;100523.31;;;-1.11;86.15
12594;BME280;6362;50.208;9.182;2023-01-26T01:38:08;100529.44;;;-1.25;86.20
12594;BME280;6362;50.208;9.182;2023-01-26T01:40:33;100528.41;;;-1.29;86.29
12594;BME280;6362;50.208;9.182;2023-01-26T01:42:59;100528.50;;;-1.27;86.37
12594;BME280;6362;50.208;9.182;2023-01-26T01:47:56;100528.84;;;-1.38;86.89
12594;BME280;6362;50.208;9.182;2023-01-26T01:50:23;100527.38;;;-1.33;87.01
12594;BME280;6362;50.208;9.182;2023-01-26T01:52:50;100528.41;;;-1.29;86.94
12594;BME280;6362;50.208;9.182;2023-01-26T01:55:16;100528.41;;;-1.29;86.75
12594;BME280;6362;50.208;9.182;2023-01-26T01:57:48;100526.53;;;-1.33;87.11
12594;BME280;6362;50.208;9.182;2023-01-26T02:00:25;100533.44;;;-1.30;86.44
12594;BME280;6362;50.208;9.182;2023-01-26T02:03:11;100530.31;;;-1.25;86.94
12594;BME280;6362;50.208;9.182;2023-01-26T02:08:36;100520.44;;;-1.35;87.00
12594;BME280;6362;50.208;9.182;2023-01-26T02:11:09;100523.00;;;-1.35;87.60
12594;BME280;6362;50.208;9.182;2023-01-26T02:13:37;100511.03;;;-1.36;87.30
12594;BME280;6362;50.208;9.182;2023-01-26T02:16:04;100507.84;;;-1.32;87.17
12594;BME280;6362;50.208;9.182;2023-01-26T02:18:29;100491.81;;;-1.29;87.19
12594;BME280;6362;50.208;9.182;2023-01-26T02:21:00;100497.06;;;-1.26;87.32
12594;BME280;6362;50.208;9.182;2023-01-26T02:28:45;100498.69;;;-1.45;87.46
12594;BME280;6362;50.208;9.182;2023-01-26T02:31:12;100494.75;;;-1.56;87.41
12594;BME280;6362;50.208;9.182;2023-01-26T02:33:38;100491.31;;;-1.56;87.88
12594;BME280;6362;50.208;9.182;2023-01-26T02:36:05;100501.91;;;-1.49;87.59
12594;BME280;6362;50.208;9.182;2023-01-26T02:38:43;100491.94;;;-1.44;87.66
12594;BME280;6362;50.208;9.182;2023-01-26T02:41:13;100492.81;;;-1.44;88.08
12594;BME280;6362;50.208;9.182;2023-01-26T02:44:04;100484.19;;;-1.46;87.73
12594;BME280;6362;50.208;9.182;2023-01-26T02:46:31;100482.78;;;-1.57;88.10
12594;BME280;6362;50.208;9.182;2023-01-26T02:48:57;100477.06;;;-1.53;87.91
12594;BME280;6362;50.208;9.182;2023-01-26T02:51:40;100469.91;;;-1.60;87.74
12594;BME280;6362;50.208;9.182;2023-01-26T02:54:06;100472.47;;;-1.60;87.66
12594;BME280;6362;50.208;9.182;2023-01-26T02:56:31;100454.91;;;-1.54;88.25
12594;BME280;6362;50.208;9.182;2023-01-26T02:58:57;100454.16;;;-1.51;88.24
12594;BME280;6362;50.208;9.182;2023-01-26T03:01:22;100448.13;;;-1.53;88.04
12594;BME280;6362;50.208;9.182;2023-01-26T03:03:47;100464.88;;;-1.58;87.63
12594;BME280;6362;50.208;9.182;2023-01-26T03:06:13;100455.25;;;-1.64;87.65
12594;BME280;6362;50.208;9.182;2023-01-26T03:08:39;100453.41;;;-1.67;87.57
12594;BME280;6362;50.208;9.182;2023-01-26T03:11:06;100452.63;;;-1.66;87.60
12594;BME280;6362;50.208;9.182;2023-01-26T03:13:31;100449.03;;;-1.69;88.22
12594;BME280;6362;50.208;9.182;2023-01-26T03:15:57;100446.56;;;-1.68;87.96
12594;BME280;6362;50.208;9.182;2023-01-26T03:18:27;100433.16;;;-1.64;87.62
12594;BME280;6362;50.208;9.182;2023-01-26T03:21:22;100433.41;;;-1.59;88.25
12594;BME280;6362;50.208;9.182;2023-01-26T03:24:10;100437.00;;;-1.55;87.64
12594;BME280;6362;50.208;9.182;2023-01-26T03:26:55;100433.69;;;-1.53;88.00
12594;BME280;6362;50.208;9.182;2023-01-26T03:29:38;100428.44;;;-1.56;87.54
12594;BME280;6362;50.208;9.182;2023-01-26T03:32:04;100431.97;;;-1.54;87.08
12594;BME280;6362;50.208;9.182;2023-01-26T03:34:29;100436.19;;;-1.54;87.17
12594;BME280;6362;50.208;9.182;2023-01-26T03:36:55;100430.69;;;-1.62;86.79
12594;BME280;6362;50.208;9.182;2023-01-26T03:39:20;100435.94;;;-1.59;87.12
12594;BME280;6362;50.208;9.182;2023-01-26T03:42:04;100434.31;;;-1.75;86.61
12594;BME280;6362;50.208;9.182;2023-01-26T03:44:48;100435.06;;;-1.77;86.57
12594;BME280;6362;50.208;9.182;2023-01-26T03:47:33;100433.44;;;-1.75;87.21
12594;BME280;6362;50.208;9.182;2023-01-26T03:50:17;100436.63;;;-1.79;86.90
12594;BME280;6362;50.208;9.182;2023-01-26T03:53:01;100433.09;;;-1.83;87.36
12594;BME280;6362;50.208;9.182;2023-01-26T03:55:45;100436.50;;;-1.82;86.65
12594;BME280;6362;50.208;9.182;2023-01-26T03:58:29;100435.63;;;-1.83;86.92
12594;BME280;6362;50.208;9.182;2023-01-26T04:00:55;100428.19;;;-1.78;86.69
12594;BME280;6362;50.208;9.182;2023-01-26T04:03:21;100426.59;;;-1.76;86.97
12594;BME280;6362;50.208;9.182;2023-01-26T04:06:05;100428.91;;;-1.81;86.81
12594;BME280;6362;50.208;9.182;2023-01-26T04:08:49;100427.00;;;-1.85;86.33
12594;BME280;6362;50.208;9.182;2023-01-26T04:11:14;100416.38;;;-1.94;86.65
12594;BME280;6362;50.208;9.182;2023-01-26T04:13:40;100417.81;;;-1.99;86.22
12594;BME280;6362;50.208;9.182;2023-01-26T04:16:24;100417.06;;;-1.97;87.14
12594;BME280;6362;50.208;9.182;2023-01-26T04:19:07;100410.47;;;-1.93;86.92
12594;BME280;6362;50.208;9.182;2023-01-26T04:21:52;100410.53;;;-1.92;86.57
12594;BME280;6362;50.208;9.182;2023-01-26T04:24:17;100407.13;;;-1.92;86.73
12594;BME280;6362;50.208;9.182;2023-01-26T04:26:46;100407.19;;;-1.91;86.57
12594;BME280;6362;50.208;9.182;2023-01-26T04:29:15;100398.53;;;-1.94;86.41
12594;BME280;6362;50.208;9.182;2023-01-26T04:31:44;100397.50;;;-1.98;86.32
12594;BME280;6362;50.208;9.182;2023-01-26T04:34:12;100400.91;;;-1.97;86.48
12594;BME280;6362;50.208;9.182;2023-01-26T04:36:38;100401.09;;;-1.94;86.79
12594;BME280;6362;50.208;9.182;2023-01-26T04:39:03;100391.81;;;-1.92;86.65
12594;BME280;6362;50.208;9.182;2023-01-26T04:41:30;100388.63;;;-1.88;86.56
12594;BME280;6362;50.208;9.182;2023-01-26T04:43:57;100382.00;;;-1.84;86.24
12594;BME280;6362;50.208;9.182;2023-01-26T04:46:22;100389.00;;;-1.80;86.18
12594;BME280;6362;50.208;9.182;2023-01-26T04:48:49;100379.69;;;-1.80;85.99
12594;BME280;6362;50.208;9.182;2023-01-26T04:51:19;100387.38;;;-1.78;86.08
12594;BME280;6362;50.208;9.182;2023-01-26T04:53:46;100386.53;;;-1.79;86.44
12594;BME280;6362;50.208;9.182;2023-01-26T04:56:31;100379.53;;;-1.83;85.77
12594;BME280;6362;50.208;9.182;2023-01-26T04:58:59;100379.38;;;-1.86;85.85
12594;BME280;6362;50.208;9.182;2023-01-26T05:01:25;100375.50;;;-1.96;85.41
12594;BME280;6362;50.208;9.182;2023-01-26T05:03:50;100371.19;;;-1.97;85.78
12594;BME280;6362;50.208;9.182;2023-01-26T05:06:16;100373.63;;;-2.00;85.55
12594;BME280;6362;50.208;9.182;2023-01-26T05:08:42;100380.59;;;-1.96;85.49
12594;BME280;6362;50.208;9.182;2023-01-26T05:11:08;100366.91;;;-1.98;85.94
12594;BME280;6362;50.208;9.182;2023-01-26T05:13:33;100374.84;;;-1.92;86.28
12594;BME280;6362;50.208;9.182;2023-01-26T05:16:01;100377.69;;;-1.86;86.30
12594;BME280;6362;50.208;9.182;2023-01-26T05:18:27;100383.31;;;-1.93;85.53
12594;BME280;6362;50.208;9.182;2023-01-26T05:20:52;100383.31;;;-1.93;85.88
12594;BME280;6362;50.208;9.182;2023-01-26T05:23:18;100393.34;;;-1.96;85.29
12594;BME280;6362;50.208;9.182;2023-01-26T05:25:43;100389.56;;;-1.86;85.19
12594;BME280;6362;50.208;9.182;2023-01-26T05:28:08;100385.34;;;-1.86;84.36
12594;BME280;6362;50.208;9.182;2023-01-26T05:30:34;100385.50;;;-1.82;84.43
12594;BME280;6362;50.208;9.182;2023-01-26T05:33:01;100392.72;;;-1.74;84.47
12594;BME280;6362;50.208;9.182;2023-01-26T05:35:26;100386.91;;;-1.71;84.03
12594;BME280;6362;50.208;9.182;2023-01-26T05:37:52;100393.13;;;-1.66;83.91
12594;BME280;6362;50.208;9.182;2023-01-26T05:40:17;100393.31;;;-1.62;84.31
12594;BME280;6362;50.208;9.182;2023-01-26T05:42:43;100389.41;;;-1.55;83.55
12594;BME280;6362;50.208;9.182;2023-01-26T05:45:09;100386.91;;;-1.53;82.33
12594;BME280;6362;50.208;9.182;2023-01-26T05:47:35;100398.56;;;-1.58;82.09
12594;BME280;6362;50.208;9.182;2023-01-26T05:50:00;100393.31;;;-1.62;81.74
12594;BME280;6362;50.208;9.182;2023-01-26T05:52:26;100402.06;;;-1.56;82.40
12594;BME280;6362;50.208;9.182;2023-01-26T05:54:51;100407.38;;;-1.52;82.50
12594;BME280;6362;50.208;9.182;2023-01-26T05:57:17;100395.44;;;-1.53;82.45
12594;BME280;6362;50.208;9.182;2023-01-26T05:59:43;100399.66;;;-1.53;82.05
12594;BME280;6362;50.208;9.182;2023-01-26T06:02:11;100406.69;;;-1.49;82.98
12594;BME280;6362;50.208;9.182;2023-01-26T06:04:37;100399.72;;;-1.52;82.61
12594;BME280;6362;50.208;9.182;2023-01-26T06:07:03;100405.66;;;-1.53;82.42
12594;BME280;6362;50.208;9.182;2023-01-26T06:09:28;100398.06;;;-1.51;83.01
12594;BME280;6362;50.208;9.182;2023-01-26T06:11:56;100412.50;;;-1.52;82.36
12594;BME280;6362;50.208;9.182;2023-01-26T06:14:21;100407.38;;;-1.52;82.71
12594;BME280;6362;50.208;9.182;2023-01-26T06:16:47;100415.44;;;-1.44;83.44
12594;BME280;6362;50.208;9.182;2023-01-26T06:19:13;100417.69;;;-1.33;84.87
12594;BME280;6362;50.208;9.182;2023-01-26T06:21:38;100413.69;;;-1.27;84.03
12594;BME280;6362;50.208;9.182;2023-01-26T06:24:04;100406.81;;;-1.28;83.58
12594;BME280;6362;50.208;9.182;2023-01-26T06:26:30;100412.28;;;-1.21;83.04
12594;BME280;6362;50.208;9.182;2023-01-26T06:28:56;100414.09;;;-1.18;83.80
12594;BME280;6362;50.208;9.182;2023-01-26T06:31:21;100417.38;;;-1.21;83.09
12594;BME280;6362;50.208;9.182;2023-01-26T06:33:53;100419.94;;;-1.21;82.63
12594;BME280;6362;50.208;9.182;2023-01-26T06:36:19;100424.00;;;-1.24;82.41
12594;BME280;6362;50.208;9.182;2023-01-26T06:38:48;100422.97;;;-0.36;90.34
12594;BME280;6362;50.208;9.182;2023-01-26T06:41:18;100413.53;;;0.44;91.47
12594;BME280;6362;50.208;9.182;2023-01-26T06:43:45;100414.03;;;0.99;89.92
12594;BME280;6362;50.208;9.182;2023-01-26T06:46:12;100416.56;;;1.67;85.93
12594;BME280;6362;50.208;9.182;2023-01-26T06:48:37;100406.97;;;2.36;81.72
12594;BME280;6362;50.208;9.182;2023-01-26T06:53:56;100416.31;;;1.61;73.17
12594;BME280;6362;50.208;9.182;2023-01-26T06:56:23;100418.94;;;1.16;73.03
12594;BME280;6362;50.208;9.182;2023-01-26T06:58:49;100411.78;;;0.85;73.76
12594;BME280;6362;50.208;9.182;2023-01-26T07:01:22;100419.72;;;0.49;74.63
12594;BME280;6362;50.208;9.182;2023-01-26T07:03:50;100420.06;;;0.16;74.71
12594;BME280;6362;50.208;9.182;2023-01-26T07:06:16;100424.78;;;-0.14;75.88
12594;BME280;6362;50.208;9.182;2023-01-26T07:08:42;100428.13;;;-0.34;75.93
12594;BME280;6362;50.208;9.182;2023-01-26T07:11:08;100425.66;;;-0.52;76.48
12594;BME280;6362;50.208;9.182;2023-01-26T07:13:34;100429.47;;;-0.62;76.50
12594;BME280;6362;50.208;9.182;2023-01-26T07:16:04;100425.88;;;-0.85;76.57
12594;BME280;6362;50.208;9.182;2023-01-26T07:18:31;100421.22;;;-0.93;77.46
12594;BME280;6362;50.208;9.182;2023-01-26T07:21:04;100425.25;;;-1.16;77.31
12594;BME280;6362;50.208;9.182;2023-01-26T07:23:30;100433.19;;;-1.28;78.05
12594;BME280;6362;50.208;9.182;2023-01-26T07:25:55;100430.22;;;-1.37;78.04
12594;BME280;6362;50.208;9.182;2023-01-26T07:28:21;100443.03;;;-1.36;78.60
12594;BME280;6362;50.208;9.182;2023-01-26T07:30:47;100436.53;;;-1.47;78.07
12594;BME280;6362;50.208;9.182;2023-01-26T07:33:13;100441.06;;;-1.59;78.62
12594;BME280;6362;50.208;9.182;2023-01-26T07:35:38;100442.78;;;-1.58;78.52
12594;BME280;6362;50.208;9.182;2023-01-26T07:38:04;100440.25;;;-1.58;78.76
12594;BME280;6362;50.208;9.182;2023-01-26T07:40:30;100431.16;;;-1.53;78.34
12594;BME280;6362;50.208;9.182;2023-01-26T07:42:56;100438.34;;;-1.62;76.94
12594;BME280;6362;50.208;9.182;2023-01-26T07:45:21;100435.94;;;-1.59;77.38
12594;BME280;6362;50.208;9.182;2023-01-26T07:47:47;100439.31;;;-1.60;77.68
12594;BME280;6362;50.208;9.182;2023-01-26T07:50:13;100443.25;;;-1.49;78.54
12594;BME280;6362;50.208;9.182;2023-01-26T07:52:39;100434.63;;;-1.51;77.79
12594;BME280;6362;50.208;9.182;2023-01-26T07:55:05;100443.72;;;-1.56;77.15
12594;BME280;6362;50.208;9.182;2023-01-26T07:57:31;100437.88;;;-1.55;77.45
12594;BME280;6362;50.208;9.182;2023-01-26T07:59:58;100437.63;;;-1.60;78.16
12594;BME280;6362;50.208;9.182;2023-01-26T08:02:24;100436.88;;;-1.57;77.90
12594;BME280;6362;50.208;9.182;2023-01-26T08:04:49;100440.19;;;-1.60;78.09
12594;BME280;6362;50.208;9.182;2023-01-26T08:07:14;100441.63;;;-1.65;77.71
12594;BME280;6362;50.208;9.182;2023-01-26T08:09:40;100446.91;;;-1.78;76.81
12594;BME280;6362;50.208;9.182;2023-01-26T08:12:05;100455.44;;;-1.77;77.85
12594;BME280;6362;50.208;9.182;2023-01-26T08:14:31;100459.50;;;-1.81;77.71
12594;BME280;6362;50.208;9.182;2023-01-26T08:17:00;100456.97;;;-1.81;78.08
12594;BME280;6362;50.208;9.182;2023-01-26T08:19:25;100449.44;;;-1.78;78.86
12594;BME280;6362;50.208;9.182;2023-01-26T08:21:51;100460.75;;;-1.73;79.31
12594;BME280;6362;50.208;9.182;2023-01-26T08:24:17;100466.72;;;-1.72;78.38
12594;BME280;6362;50.208;9.182;2023-01-26T08:26:42;100463.53;;;-1.68;78.20
12594;BME280;6362;50.208;9.182;2023-01-26T08:29:08;100464.03;;;-1.75;77.20
12594;BME280;6362;50.208;9.182;2023-01-26T08:31:33;100468.50;;;-1.71;77.64
12594;BME280;6362;50.208;9.182;2023-01-26T08:33:59;100461.06;;;-1.67;77.69
12594;BME280;6362;50.208;9.182;2023-01-26T08:36:24;100466.16;;;-1.67;77.67
12594;BME280;6362;50.208;9.182;2023-01-26T08:38:51;100467.34;;;-1.60;77.89
12594;BME280;6362;50.208;9.182;2023-01-26T08:41:17;100468.13;;;-1.61;77.11
12594;BME280;6362;50.208;9.182;2023-01-26T08:43:43;100464.94;;;-1.57;77.29
12594;BME280;6362;50.208;9.182;2023-01-26T08:46:08;100466.78;;;-1.54;76.36
12594;BME280;6362;50.208;9.182;2023-01-26T08:48:34;100471.88;;;-1.54;76.86
12594;BME280;6362;50.208;9.182;2023-01-26T08:51:01;100472.75;;;-1.54;76.44
12594;BME280;6362;50.208;9.182;2023-01-26T08:53:29;100471.22;;;-1.50;77.24
12594;BME280;6362;50.208;9.182;2023-01-26T08:55:55;100470.03;;;-1.57;76.20
12594;BME280;6362;50.208;9.182;2023-01-26T08:58:21;100468.25;;;-1.06;85.02
12594;BME280;6362;50.208;9.182;2023-01-26T09:00:46;100474.59;;;-1.34;78.77
12594;BME280;6362;50.208;9.182;2023-01-26T09:03:12;100469.47;;;-1.34;79.12
12594;BME280;6362;50.208;9.182;2023-01-26T09:05:38;100476.19;;;-1.36;78.15
12594;BME280;6362;50.208;9.182;2023-01-26T09:08:05;100475.09;;;-1.41;77.29
12594;BME280;6362;50.208;9.182;2023-01-26T09:10:31;100482.63;;;-1.44;77.64
12594;BME280;6362;50.208;9.182;2023-01-26T09:12:58;100479.31;;;-1.41;77.23
12594;BME280;6362;50.208;9.182;2023-01-26T09:15:24;100478.47;;;-1.42;77.21
12594;BME280;6362;50.208;9.182;2023-01-26T09:17:50;100475.53;;;-1.49;77.12
12594;BME280;6362;50.208;9.182;2023-01-26T09:20:16;100477.34;;;-1.47;77.27
12594;BME280;6362;50.208;9.182;2023-01-26T09:22:47;100481.50;;;-1.49;76.65
12594;BME280;6362;50.208;9.182;2023-01-26T09:25:22;100487.31;;;-1.51;76.61
12594;BME280;6362;50.208;9.182;2023-01-26T09:27:47;100484.88;;;-1.50;76.31
12594;BME280;6362;50.208;9.182;2023-01-26T09:30:13;100486.19;;;-1.40;80.06
12594;BME280;6362;50.208;9.182;2023-01-26T09:32:38;100487.84;;;-1.41;78.62
12594;BME280;6362;50.208;9.182;2023-01-26T09:35:04;100477.38;;;-1.29;79.21
12594;BME280;6362;50.208;9.182;2023-01-26T09:37:30;100483.44;;;-1.09;79.27
12594;BME280;6362;50.208;9.182;2023-01-26T09:39:55;100478.56;;;-1.04;77.94
12594;BME280;6362;50.208;9.182;2023-01-26T09:42:31;100483.44;;;0.03;89.07
12594;BME280;6362;50.208;9.182;2023-01-26T09:45:08;100479.25;;;0.87;90.19
12594;BME280;6362;50.208;9.182;2023-01-26T09:50:54;100485.72;;;1.20;79.13
12594;BME280;6362;50.208;9.182;2023-01-26T09:53:27;100477.97;;;1.64;83.54
12594;BME280;6362;50.208;9.182;2023-01-26T09:55:58;100476.41;;;0.79;72.43
12594;BME280;6362;50.208;9.182;2023-01-26T09:58:34;100471.72;;;0.69;72.87
12594;BME280;6362;50.208;9.182;2023-01-26T10:01:02;100464.59;;;0.41;72.40
12594;BME280;6362;50.208;9.182;2023-01-26T10:03:36;100471.66;;;0.06;71.93
12594;BME280;6362;50.208;9.182;2023-01-26T10:06:24;100468.84;;;-0.19;72.09
12594;BME280;6362;50.208;9.182;2023-01-26T10:08:57;100470.91;;;-0.30;72.20
12594;BME280;6362;50.208;9.182;2023-01-26T10:11:28;100469.00;;;-0.54;71.79
12594;BME280;6362;50.208;9.182;2023-01-26T10:14:00;100465.38;;;-0.59;72.24
12594;BME280;6362;50.208;9.182;2023-01-26T10:16:27;100463.78;;;-0.74;71.93
12594;BME280;6362;50.208;9.182;2023-01-26T10:19:09;100463.66;;;-0.77;72.03
12594;BME280;6362;50.208;9.182;2023-01-26T10:21:39;100456.88;;;-0.77;72.54
12594;BME280;6362;50.208;9.182;2023-01-26T10:24:09;100462.06;;;-0.93;72.83
12594;BME280;6362;50.208;9.182;2023-01-26T10:26:36;100448.50;;;-0.92;72.88
12594;BME280;6362;50.208;9.182;2023-01-26T10:29:02;100448.88;;;-1.02;72.76
12594;BME280;6362;50.208;9.182;2023-01-26T10:31:30;100447.72;;;-1.09;71.37
12594;BME280;6362;50.208;9.182;2023-01-26T10:34:09;100451.63;;;-1.34;72.78
12594;BME280;6362;50.208;9.182;2023-01-26T10:36:39;100456.53;;;-1.38;72.96
12594;BME280;6362;50.208;9.182;2023-01-26T10:39:06;100443.97;;;-1.34;73.07
12594;BME280;6362;50.208;9.182;2023-01-26T10:41:32;100443.19;;;-1.33;73.50
12594;BME280;6362;50.208;9.182;2023-01-26T10:44:01;100438.22;;;-1.29;73.26
12594;BME280;6362;50.208;9.182;2023-01-26T10:46:35;100449.47;;;-1.26;74.26
12594;BME280;6362;50.208;9.182;2023-01-26T10:51:35;100437.06;;;-1.18;71.60
12594;BME280;6362;50.208;9.182;2023-01-26T10:54:21;100433.97;;;-1.11;71.88
12594;BME280;6362;50.208;9.182;2023-01-26T10:56:50;100427.41;;;-1.06;72.37
12594;BME280;6362;50.208;9.182;2023-01-26T10:59:38;100429.25;;;-1.03;71.63
12594;BME280;6362;50.208;9.182;2023-01-26T11:04:37;100421.44;;;-0.89;72.34
12594;BME280;6362;50.208;9.182;2023-01-26T11:07:26;100418.75;;;-0.92;72.10
12594;BME280;6362;50.208;9.182;2023-01-26T11:09:53;100418.81;;;-0.90;72.28
12594;BME280;6362;50.208;9.182;2023-01-26T11:12:20;100410.88;;;-0.96;72.23
12594;BME280;6362;50.208;9.182;2023-01-26T11:15:00;100412.47;;;-0.98;72.31
12594;BME280;6362;50.208;9.182;2023-01-26T11:17:58;100405.97;;;-0.55;81.50
12594;BME280;6362;50.208;9.182;2023-01-26T11:23:14;100397.13;;;-0.22;77.15
12594;BME280;6362;50.208;9.182;2023-01-26T11:41:43;100382.72;;;-0.61;69.68
12594;BME280;6362;50.208;9.182;2023-01-26T11:46:52;100380.63;;;-0.50;70.71
12594;BME280;6362;50.208;9.182;2023-01-26T11:57:49;100367.97;;;-0.47;69.63
12594;BME280;6362;50.208;9.182;2023-01-26T12:00:21;100369.31;;;-0.55;69.70
12594;BME280;6362;50.208;9.182;2023-01-26T12:02:55;100368.25;;;-0.60;70.45
12594;BME280;6362;50.208;9.182;2023-01-26T12:05:32;100367.16;;;-0.65;71.06
12594;BME280;6362;50.208;9.182;2023-01-26T12:08:04;100358.56;;;-0.67;70.65
12594;BME280;6362;50.208;9.182;2023-01-26T12:10:56;100364.41;;;-0.70;70.36
12594;BME280;6362;50.208;9.182;2023-01-26T12:13:37;100358.69;;;-0.64;70.45
12594;BME280;6362;50.208;9.182;2023-01-26T12:16:13;100356.47;;;-0.57;70.75
12594;BME280;6362;50.208;9.182;2023-01-26T12:18:46;100352.13;;;-0.59;70.23
12594;BME280;6362;50.208;9.182;2023-01-26T12:21:13;100345.53;;;-0.54;70.17
12594;BME280;6362;50.208;9.182;2023-01-26T12:24:01;100342.78;;;-0.59;70.26
12594;BME280;6362;50.208;9.182;2023-01-26T12:26:51;100334.56;;;-0.51;70.08
12594;BME280;6362;50.208;9.182;2023-01-26T12:29:24;100336.19;;;-0.54;69.31
12594;BME280;6362;50.208;9.182;2023-01-26T12:32:11;100336.84;;;-0.58;69.43
12594;BME280;6362;50.208;9.182;2023-01-26T12:34:38;100332.81;;;-0.52;69.58
12594;BME280;6362;50.208;9.182;2023-01-26T12:37:30;100337.97;;;-0.51;71.03
12594;BME280;6362;50.208;9.182;2023-01-26T12:42:50;100326.78;;;-0.34;70.50
12594;BME280;6362;50.208;9.182;2023-01-26T12:45:26;100328.38;;;-0.37;70.38
12594;BME280;6362;50.208;9.182;2023-01-26T12:48:06;100325.00;;;-0.36;70.62
12594;BME280;6362;50.208;9.182;2023-01-26T12:50:50;100319.53;;;-0.24;70.06
12594;BME280;6362;50.208;9.182;2023-01-26T12:53:24;100319.53;;;-0.24;69.30
12594;BME280;6362;50.208;9.182;2023-01-26T12:56:23;100317.47;;;-0.33;68.52
12594;BME280;6362;50.208;9.182;2023-01-26T12:58:51;100323.88;;;-0.43;69.36
12594;BME280;6362;50.208;9.182;2023-01-26T13:01:20;100321.72;;;-0.53;68.07
12594;BME280;6362;50.208;9.182;2023-01-26T13:04:04;100309.09;;;-0.50;68.31
12594;BME280;6362;50.208;9.182;2023-01-26T13:06:32;100316.66;;;-0.51;68.83
12594;BME280;6362;50.208;9.182;2023-01-26T13:11:54;100314.34;;;-0.66;68.06
12594;BME280;6362;50.208;9.182;2023-01-26T13:14:31;100317.94;;;-0.61;68.99
12594;BME280;6362;50.208;9.182;2023-01-26T13:24:45;100312.97;;;-0.18;67.56
12594;BME280;6362;50.208;9.182;2023-01-26T13:29:56;100316.75;;;-0.10;66.87
12594;BME280;6362;50.208;9.182;2023-01-26T13:34:50;100318.84;;;-0.20;66.18
12594;BME280;6362;50.208;9.182;2023-01-26T13:40:19;100316.16;;;-0.64;66.39
12594;BME280;6362;50.208;9.182;2023-01-26T13:42:56;100312.72;;;-0.64;67.16
12594;BME280;6362;50.208;9.182;2023-01-26T13:45:44;100311.91;;;-0.63;68.06
12594;BME280;6362;50.208;9.182;2023-01-26T13:48:17;100311.91;;;-0.63;67.83
12594;BME280;6362;50.208;9.182;2023-01-26T13:50:49;100316.34;;;-0.59;68.30
12594;BME280;6362;50.208;9.182;2023-01-26T13:53:36;100314.66;;;-0.59;68.06
12594;BME280;6362;50.208;9.182;2023-01-26T13:56:04;100308.53;;;-0.62;68.90
12594;BME280;6362;50.208;9.182;2023-01-26T13:58:30;100313.19;;;-0.54;69.12
12594;BME280;6362;50.208;9.182;2023-01-26T14:03:27;100313.03;;;-0.57;69.33
12594;BME280;6362;50.208;9.182;2023-01-26T14:06:03;100312.94;;;-0.60;69.40
12594;BME280;6362;50.208;9.182;2023-01-26T14:08:31;100316.09;;;-0.65;69.23
12594;BME280;6362;50.208;9.182;2023-01-26T14:10:58;100310.22;;;-0.63;69.38
12594;BME280;6362;50.208;9.182;2023-01-26T14:13:35;100308.69;;;-0.59;69.49
12594;BME280;6362;50.208;9.182;2023-01-26T14:16:04;100313.59;;;-0.64;69.73
12594;BME280;6362;50.208;9.182;2023-01-26T14:18:30;100309.84;;;-0.72;70.19
12594;BME280;6362;50.208;9.182;2023-01-26T14:21:04;100316.16;;;-0.64;70.16
12594;BME280;6362;50.208;9.182;2023-01-26T14:23:35;100309.34;;;-0.63;71.23
12594;BME280;6362;50.208;9.182;2023-01-26T14:26:02;100310.19;;;-0.64;69.86
12594;BME280;6362;50.208;9.182;2023-01-26T14:28:32;100312.47;;;-0.70;70.18